createdAt,value
2023-01-19T00:01:30.959Z,15.70
2023-01-19T00:04:04.242Z,15.80
2023-01-19T00:06:37.218Z,15.37
2023-01-19T00:09:10.334Z,14.37
2023-01-19T00:11:43.371Z,13.00
2023-01-19T00:14:17.715Z,13.67
2023-01-19T00:16:50.741Z,13.10
2023-01-19T00:19:23.808Z,12.73
2023-01-19T00:21:57.173Z,13.53
2023-01-19T00:24:30.143Z,12.90
2023-01-19T00:27:04.089Z,13.57
2023-01-19T00:29:38.481Z,13.33
2023-01-19T00:32:11.458Z,12.30
2023-01-19T00:34:49.437Z,13.33
2023-01-19T00:37:22.506Z,12.80
2023-01-19T00:39:55.519Z,13.10
2023-01-19T00:42:45.274Z,15.13
2023-01-19T00:45:22.102Z,13.83
2023-01-19T00:47:57.199Z,13.17
2023-01-19T00:50:33.665Z,13.03
2023-01-19T00:53:06.752Z,13.07
2023-01-19T00:55:39.773Z,12.60
2023-01-19T00:58:12.869Z,12.77
2023-01-19T01:00:47.280Z,14.00
2023-01-19T01:03:20.373Z,13.20
2023-01-19T01:05:53.423Z,12.70
2023-01-19T01:08:26.519Z,14.37
2023-01-19T01:10:59.580Z,14.77
2023-01-19T01:13:33.046Z,15.27
2023-01-19T01:16:09.792Z,14.90
2023-01-19T01:18:43.048Z,14.60
2023-01-19T01:21:16.057Z,14.03
2023-01-19T01:23:49.029Z,13.80
2023-01-19T01:26:22.282Z,14.50
2023-01-19T01:28:55.295Z,14.43
2023-01-19T01:31:29.878Z,14.50
2023-01-19T01:34:02.965Z,13.87
2023-01-19T01:36:36.145Z,14.03
2023-01-19T01:39:09.168Z,14.17
2023-01-19T01:41:42.134Z,14.00
2023-01-19T01:44:51.562Z,14.67
2023-01-19T01:47:32.850Z,14.53
2023-01-19T01:50:12.716Z,14.40
2023-01-19T01:53:06.397Z,14.07
2023-01-19T01:55:46.565Z,13.47
2023-01-19T01:58:19.563Z,13.87
2023-01-19T02:01:10.430Z,13.60
2023-01-19T02:03:45.376Z,13.73
2023-01-19T02:06:18.844Z,13.73
2023-01-19T02:09:14.589Z,13.47
2023-01-19T02:12:05.925Z,13.80
2023-01-19T02:14:39.138Z,14.07
2023-01-19T02:17:12.194Z,14.30
2023-01-19T02:19:46.716Z,14.50
2023-01-19T02:22:26.246Z,14.10
2023-01-19T02:25:00.895Z,14.00
2023-01-19T02:27:34.293Z,13.97
2023-01-19T02:30:10.016Z,13.47
2023-01-19T02:32:43.378Z,14.00
2023-01-19T02:35:17.125Z,14.37
2023-01-19T02:37:50.317Z,14.10
2023-01-19T02:40:25.810Z,13.70
2023-01-19T02:43:00.935Z,14.53
2023-01-19T02:45:34.737Z,13.63
2023-01-19T02:48:08.341Z,14.27
2023-01-19T02:50:46.289Z,13.90
2023-01-19T02:54:12.561Z,13.97
2023-01-19T02:57:13.855Z,13.77
2023-01-19T03:00:08.032Z,14.60
2023-01-19T03:02:55.886Z,14.27
2023-01-19T03:05:41.728Z,14.80
2023-01-19T03:08:23.935Z,14.20
2023-01-19T03:11:03.423Z,15.07
2023-01-19T03:13:46.549Z,14.87
2023-01-19T03:16:23.193Z,14.73
2023-01-19T03:18:59.822Z,14.50
2023-01-19T03:21:37.065Z,15.20
2023-01-19T03:24:12.532Z,13.93
2023-01-19T03:26:49.958Z,14.67
2023-01-19T03:29:29.405Z,12.30
2023-01-19T03:32:09.049Z,11.83
2023-01-19T03:34:43.989Z,14.10
2023-01-19T03:37:17.647Z,13.30
2023-01-19T03:39:51.351Z,13.80
2023-01-19T03:42:26.485Z,12.77
2023-01-19T03:45:02.918Z,13.40
2023-01-19T03:47:37.571Z,14.50
2023-01-19T03:50:19.350Z,13.70
2023-01-19T03:53:03.143Z,13.00
2023-01-19T03:55:38.627Z,12.53
2023-01-19T03:58:11.878Z,12.33
2023-01-19T04:00:46.294Z,13.17
2023-01-19T04:03:19.884Z,11.40
2023-01-19T04:05:52.872Z,12.17
2023-01-19T04:08:25.858Z,12.40
2023-01-19T04:10:59.233Z,11.57
2023-01-19T04:13:32.250Z,12.70
2023-01-19T04:16:07.884Z,13.10
2023-01-19T04:18:42.303Z,13.43
2023-01-19T04:21:15.494Z,14.23
2023-01-19T04:23:49.886Z,13.33
2023-01-19T04:26:22.901Z,13.67
2023-01-19T04:28:55.883Z,12.33
2023-01-19T04:31:31.288Z,12.20
2023-01-19T04:34:04.537Z,12.47
2023-01-19T04:36:37.559Z,13.87
2023-01-19T04:39:11.756Z,13.13
2023-01-19T04:41:44.763Z,13.10
2023-01-19T04:44:17.755Z,12.70
2023-01-19T04:46:52.207Z,13.80
2023-01-19T04:49:25.261Z,12.33
2023-01-19T04:51:58.318Z,17.23
2023-01-19T04:54:31.585Z,16.73
2023-01-19T04:57:04.737Z,16.07
2023-01-19T04:59:37.724Z,16.13
2023-01-19T05:02:12.106Z,14.23
2023-01-19T05:04:45.148Z,14.63
2023-01-19T05:07:18.458Z,14.67
2023-01-19T05:09:51.513Z,14.73
2023-01-19T05:12:24.545Z,14.23
2023-01-19T05:14:57.541Z,14.20
2023-01-19T05:17:31.915Z,12.97
2023-01-19T05:20:05.739Z,14.53
2023-01-19T05:22:39.462Z,13.73
2023-01-19T05:25:12.465Z,13.63
2023-01-19T05:27:45.847Z,14.00
2023-01-19T05:30:19.285Z,13.40
2023-01-19T05:32:53.649Z,16.77
2023-01-19T05:35:35.671Z,16.93
2023-01-19T05:38:09.208Z,15.87
2023-01-19T05:40:42.227Z,16.53
2023-01-19T05:43:15.961Z,14.63
2023-01-19T05:45:48.984Z,12.60
2023-01-19T05:48:23.290Z,12.23
2023-01-19T05:50:59.876Z,12.60
2023-01-19T05:53:33.389Z,12.53
2023-01-19T05:56:09.269Z,12.93
2023-01-19T05:58:42.299Z,14.80
2023-01-19T06:01:15.438Z,14.90
2023-01-19T06:03:50.329Z,14.03
2023-01-19T06:06:23.598Z,13.73
2023-01-19T06:08:56.636Z,14.17
2023-01-19T06:11:29.677Z,13.70
2023-01-19T06:14:02.706Z,13.57
2023-01-19T06:16:35.768Z,14.10
2023-01-19T06:19:10.695Z,15.20
2023-01-19T06:21:49.523Z,13.77
2023-01-19T06:24:24.031Z,15.63
2023-01-19T06:26:57.061Z,14.93
2023-01-19T06:29:30.059Z,14.40
2023-01-19T06:32:03.356Z,15.87
2023-01-19T06:34:40.160Z,15.87
2023-01-19T06:37:13.378Z,17.70
2023-01-19T06:39:46.372Z,17.87
2023-01-19T06:42:19.387Z,17.93
2023-01-19T06:44:52.409Z,16.90
2023-01-19T06:47:25.424Z,15.87
2023-01-19T06:49:59.794Z,14.70
2023-01-19T06:52:32.774Z,15.77
2023-01-19T06:55:10.701Z,15.83
2023-01-19T06:57:44.366Z,14.93
2023-01-19T07:00:18.909Z,15.87
2023-01-19T07:02:52.040Z,14.93
2023-01-19T07:05:26.557Z,15.30
2023-01-19T07:07:59.545Z,14.90
2023-01-19T07:11:25.038Z,14.13
2023-01-19T07:13:25.627Z,14.97
2023-01-19T07:15:58.759Z,15.83
2023-01-19T07:18:31.974Z,15.13
2023-01-19T07:21:07.703Z,17.13
2023-01-19T07:23:40.730Z,17.57
2023-01-19T07:26:15.286Z,16.43
2023-01-19T07:28:48.708Z,15.60
2023-01-19T07:31:21.987Z,15.20
2023-01-19T07:33:55.258Z,15.63
2023-01-19T07:36:29.590Z,15.87
2023-01-19T07:39:02.680Z,17.20
2023-01-19T07:41:35.669Z,16.40
2023-01-19T07:44:08.823Z,16.50
2023-01-19T07:46:43.329Z,16.57
2023-01-19T07:49:16.319Z,15.80
2023-01-19T07:51:50.686Z,16.43
2023-01-19T07:54:24.078Z,16.13
2023-01-19T07:56:57.182Z,16.07
2023-01-19T07:59:32.239Z,15.97
2023-01-19T08:02:05.673Z,17.33
2023-01-19T08:04:38.797Z,18.57
2023-01-19T08:07:13.705Z,17.10
2023-01-19T08:09:46.685Z,17.17
2023-01-19T08:12:19.707Z,15.53
2023-01-19T08:14:52.740Z,17.03
2023-01-19T08:17:25.754Z,17.40
2023-01-19T08:19:58.948Z,17.03
2023-01-19T08:22:33.287Z,16.57
2023-01-19T08:25:07.352Z,16.00
2023-01-19T08:27:40.318Z,16.30
2023-01-19T08:30:14.222Z,16.67
2023-01-19T08:32:47.209Z,16.13
2023-01-19T08:35:20.200Z,16.47
2023-01-19T08:37:54.578Z,17.57
2023-01-19T08:40:27.929Z,16.33
2023-01-19T08:43:03.778Z,17.47
2023-01-19T08:45:41.402Z,17.03
2023-01-19T08:48:14.914Z,17.07
2023-01-19T08:50:48.941Z,17.50
2023-01-19T08:53:24.481Z,17.50
2023-01-19T08:56:00.028Z,17.37
2023-01-19T08:58:33.067Z,16.30
2023-01-19T09:01:06.861Z,16.80
2023-01-19T09:03:40.189Z,15.53
2023-01-19T09:06:17.018Z,15.10
2023-01-19T09:08:51.359Z,14.97
2023-01-19T09:11:24.397Z,12.23
2023-01-19T09:13:57.402Z,12.13
2023-01-19T09:16:30.483Z,14.00
2023-01-19T09:19:03.566Z,14.50
2023-01-19T09:21:36.856Z,12.33
2023-01-19T09:24:11.806Z,10.77
2023-01-19T09:26:44.893Z,11.90
2023-01-19T09:29:18.160Z,11.47
2023-01-19T09:31:51.274Z,10.60
2023-01-19T09:34:25.543Z,11.33
2023-01-19T09:36:58.652Z,11.13
2023-01-19T09:39:33.077Z,11.83
2023-01-19T09:42:15.091Z,11.27
2023-01-19T09:44:51.111Z,11.10
2023-01-19T09:47:29.115Z,10.40
2023-01-19T09:50:07.012Z,10.37
2023-01-19T09:52:45.206Z,9.40
2023-01-19T09:55:24.493Z,9.37
2023-01-19T09:57:58.037Z,9.50
2023-01-19T10:00:32.644Z,9.80
2023-01-19T10:03:16.219Z,9.43
2023-01-19T10:05:54.019Z,9.70
2023-01-19T10:08:37.168Z,9.00
2023-01-19T10:11:26.313Z,8.90
2023-01-19T10:14:00.583Z,8.30
2023-01-19T10:16:45.744Z,7.87
2023-01-19T10:19:26.669Z,8.00
2023-01-19T10:22:06.011Z,8.00
2023-01-19T10:24:42.774Z,7.30
2023-01-19T10:27:20.819Z,7.10
2023-01-19T10:29:53.966Z,7.43
2023-01-19T10:32:30.391Z,7.10
2023-01-19T10:35:21.177Z,7.20
2023-01-19T10:37:57.908Z,7.10
2023-01-19T10:40:37.606Z,6.40
2023-01-19T10:43:48.152Z,6.90
2023-01-19T10:46:25.773Z,6.77
2023-01-19T10:48:59.079Z,6.43
2023-01-19T10:51:32.251Z,6.70
2023-01-19T10:54:06.284Z,6.37
2023-01-19T10:56:40.469Z,7.07
2023-01-19T10:59:35.564Z,7.07
2023-01-19T11:02:21.326Z,6.70
2023-01-19T11:04:57.095Z,7.20
2023-01-19T11:07:32.535Z,6.13
2023-01-19T11:10:27.105Z,6.77
2023-01-19T11:13:03.900Z,6.47
2023-01-19T11:15:46.147Z,6.93
2023-01-19T11:18:28.553Z,6.47
2023-01-19T11:21:03.801Z,6.97
2023-01-19T11:23:42.862Z,11.07
2023-01-19T11:26:25.384Z,11.17
2023-01-19T11:29:00.281Z,9.90
2023-01-19T11:31:36.923Z,9.03
2023-01-19T11:34:26.916Z,9.33
2023-01-19T11:37:03.033Z,8.47
2023-01-19T11:39:49.488Z,9.73
2023-01-19T11:42:23.433Z,8.77
2023-01-19T11:45:14.060Z,9.90
2023-01-19T11:47:52.398Z,9.73
2023-01-19T11:50:30.314Z,9.33
2023-01-19T11:53:12.615Z,7.97
2023-01-19T11:55:53.773Z,8.00
2023-01-19T11:58:28.003Z,7.63
2023-01-19T12:01:06.485Z,9.07
2023-01-19T12:03:45.343Z,8.43
2023-01-19T12:06:22.719Z,7.57
2023-01-19T12:09:00.082Z,8.37
2023-01-19T12:11:37.390Z,8.37
2023-01-19T12:14:20.054Z,7.53
2023-01-19T12:17:00.432Z,7.50
2023-01-19T12:19:44.139Z,7.10
2023-01-19T12:22:19.000Z,7.20
2023-01-19T12:24:59.279Z,7.10
2023-01-19T12:27:41.239Z,6.57
2023-01-19T12:30:22.401Z,6.53
2023-01-19T12:33:34.767Z,6.80
2023-01-19T12:36:14.192Z,7.27
2023-01-19T12:38:52.449Z,7.73
2023-01-19T12:41:30.077Z,7.63
2023-01-19T12:44:30.716Z,7.00
2023-01-19T12:47:22.395Z,7.80
2023-01-19T12:50:00.829Z,17.60
2023-01-19T12:52:41.579Z,24.60
2023-01-19T12:55:24.169Z,17.40
2023-01-19T12:58:03.165Z,15.30
2023-01-19T13:00:39.975Z,24.00
2023-01-19T13:03:44.926Z,10.63
2023-01-19T13:06:18.109Z,14.37
2023-01-19T13:09:02.012Z,17.23
2023-01-19T13:11:35.127Z,19.93
2023-01-19T13:14:35.853Z,17.60
2023-01-19T13:17:28.389Z,26.47
2023-01-19T13:20:27.672Z,31.77
2023-01-19T13:23:26.069Z,23.27
2023-01-19T13:26:07.127Z,36.43
2023-01-19T13:28:44.659Z,29.70
2023-01-19T13:31:18.644Z,10.37
2023-01-19T13:33:54.862Z,13.57
2023-01-19T13:36:32.540Z,15.60
2023-01-19T13:39:08.618Z,61.50
2023-01-19T13:41:45.016Z,63.90
2023-01-19T13:44:26.096Z,73.53
2023-01-19T13:47:00.132Z,33.60
2023-01-19T13:49:37.254Z,31.90
2023-01-19T13:52:21.430Z,33.60
2023-01-19T13:54:56.601Z,43.57
2023-01-19T13:57:32.855Z,30.90
2023-01-19T14:00:17.337Z,22.50
2023-01-19T14:02:58.754Z,24.10
2023-01-19T14:05:34.679Z,37.07
2023-01-19T14:08:15.268Z,22.43
2023-01-19T14:11:02.091Z,32.87
2023-01-19T14:13:40.186Z,22.97
2023-01-19T14:16:18.007Z,13.53
2023-01-19T14:19:02.260Z,16.80
2023-01-19T14:21:40.485Z,10.77
2023-01-19T14:24:19.249Z,10.57
2023-01-19T14:26:54.771Z,10.07
2023-01-19T14:29:32.570Z,12.33
2023-01-19T14:32:16.366Z,8.87
2023-01-19T14:34:51.901Z,8.50
2023-01-19T14:37:28.683Z,8.40
2023-01-19T14:40:05.623Z,8.17
2023-01-19T14:42:45.608Z,8.50
2023-01-19T14:45:22.557Z,8.20
2023-01-19T14:47:58.232Z,8.73
2023-01-19T14:50:35.206Z,10.67
2023-01-19T14:53:16.379Z,13.73
2023-01-19T14:55:52.445Z,13.67
2023-01-19T14:58:28.598Z,12.70
2023-01-19T15:01:03.716Z,11.53
2023-01-19T15:03:45.681Z,12.63
2023-01-19T15:06:21.496Z,11.47
2023-01-19T15:08:55.514Z,11.10
2023-01-19T15:11:32.588Z,10.30
2023-01-19T15:14:05.704Z,8.40
2023-01-19T15:16:40.505Z,8.93
2023-01-19T15:19:14.775Z,8.37
2023-01-19T15:21:47.848Z,8.27
2023-01-19T15:24:20.870Z,8.80
2023-01-19T15:26:54.067Z,7.90
2023-01-19T15:29:28.676Z,8.37
2023-01-19T15:32:03.940Z,11.17
2023-01-19T15:34:37.036Z,11.17
2023-01-19T15:37:10.277Z,9.50
2023-01-19T15:39:43.373Z,9.30
2023-01-19T15:42:16.636Z,9.53
2023-01-19T15:44:49.687Z,10.10
2023-01-19T15:47:24.054Z,8.47
2023-01-19T15:49:57.147Z,9.67
2023-01-19T15:52:30.215Z,9.07
2023-01-19T15:55:03.255Z,10.30
2023-01-19T15:57:36.387Z,11.43
2023-01-19T16:00:11.701Z,10.30
2023-01-19T16:02:46.202Z,11.30
2023-01-19T16:05:19.414Z,9.80
2023-01-19T16:07:52.991Z,10.90
2023-01-19T16:10:26.826Z,11.57
2023-01-19T16:12:59.866Z,11.77
2023-01-19T16:15:35.720Z,12.10
2023-01-19T16:18:10.171Z,12.07
2023-01-19T16:20:43.192Z,11.57
2023-01-19T16:23:16.282Z,10.93
2023-01-19T16:25:58.504Z,13.07
2023-01-19T16:28:32.116Z,11.30
2023-01-19T16:31:05.979Z,12.47
2023-01-19T16:33:40.400Z,9.90
2023-01-19T16:36:22.750Z,10.80
2023-01-19T16:38:59.609Z,12.60
2023-01-19T16:41:33.600Z,10.83
2023-01-19T16:44:08.034Z,9.57
2023-01-19T16:46:44.410Z,9.20
2023-01-19T16:49:21.171Z,13.23
2023-01-19T16:51:55.339Z,17.77
2023-01-19T16:54:29.888Z,28.43
2023-01-19T16:57:02.991Z,22.27
2023-01-19T16:59:36.164Z,15.00
2023-01-19T17:02:11.117Z,9.83
2023-01-19T17:04:45.575Z,11.10
2023-01-19T17:07:19.366Z,10.40
2023-01-19T17:09:52.495Z,11.47
2023-01-19T17:12:25.678Z,11.10
2023-01-19T17:14:58.718Z,11.13
2023-01-19T17:17:31.834Z,12.13
2023-01-19T17:20:07.844Z,15.03
2023-01-19T17:22:40.890Z,13.43
2023-01-19T17:25:13.984Z,14.87
2023-01-19T17:27:47.035Z,15.03
2023-01-19T17:30:20.420Z,14.20
2023-01-19T17:32:53.850Z,14.60
2023-01-19T17:35:28.289Z,14.67
2023-01-19T17:38:01.323Z,14.90
2023-01-19T17:40:34.339Z,13.63
2023-01-19T17:43:07.835Z,12.70
2023-01-19T17:45:40.862Z,11.80
2023-01-19T17:48:14.140Z,10.57
2023-01-19T17:50:48.570Z,9.77
2023-01-19T17:53:21.645Z,11.23
2023-01-19T17:55:54.748Z,12.47
2023-01-19T17:58:27.803Z,12.53
2023-01-19T18:01:09.027Z,12.77
2023-01-19T18:03:42.734Z,16.27
2023-01-19T18:06:17.857Z,17.43
2023-01-19T18:08:52.421Z,15.63
2023-01-19T18:11:25.590Z,18.27
2023-01-19T18:14:00.175Z,16.60
2023-01-19T18:16:33.511Z,16.27
2023-01-19T18:19:06.592Z,16.23
2023-01-19T18:21:41.059Z,15.07
2023-01-19T18:24:14.111Z,16.90
2023-01-19T18:26:47.138Z,15.50
2023-01-19T18:29:20.518Z,13.30
2023-01-19T18:31:53.584Z,12.97
2023-01-19T18:34:26.637Z,12.87
2023-01-19T18:37:01.228Z,13.67
2023-01-19T18:39:34.514Z,13.07
2023-01-19T18:42:07.552Z,19.43
2023-01-19T18:44:40.603Z,19.60
2023-01-19T18:47:13.660Z,15.37
2023-01-19T18:49:46.724Z,15.03
2023-01-19T18:52:21.579Z,13.90
2023-01-19T18:54:54.678Z,15.40
2023-01-19T18:57:27.750Z,14.30
2023-01-19T19:00:00.932Z,16.47
2023-01-19T19:02:34.518Z,17.23
2023-01-19T19:05:09.158Z,15.73
2023-01-19T19:07:43.872Z,15.50
2023-01-19T19:10:17.563Z,18.50
2023-01-19T19:12:50.834Z,18.07
2023-01-19T19:15:24.277Z,16.10
2023-01-19T19:17:57.313Z,15.67
2023-01-19T19:20:30.631Z,12.93
2023-01-19T19:23:05.242Z,13.47
2023-01-19T19:25:38.833Z,15.90
2023-01-19T19:28:11.898Z,15.33
2023-01-19T19:30:46.522Z,16.57
2023-01-19T19:33:19.609Z,17.40
2023-01-19T19:35:58.000Z,17.93
2023-01-19T19:38:32.516Z,16.83
2023-01-19T19:41:10.208Z,15.73
2023-01-19T19:43:43.249Z,18.37
2023-01-19T19:46:20.030Z,13.93
2023-01-19T19:48:54.485Z,14.07
2023-01-19T19:51:28.937Z,13.63
2023-01-19T19:54:03.331Z,16.10
2023-01-19T19:56:36.439Z,16.03
2023-01-19T19:59:10.210Z,13.10
2023-01-19T20:01:44.937Z,14.57
2023-01-19T20:04:20.177Z,19.00
2023-01-19T20:06:53.581Z,22.67
2023-01-19T20:09:27.951Z,20.53
2023-01-19T20:12:00.975Z,20.57
2023-01-19T20:14:35.255Z,18.83
2023-01-19T20:17:08.244Z,15.93
2023-01-19T20:19:41.262Z,22.87
2023-01-19T20:22:14.335Z,26.43
2023-01-19T20:24:51.301Z,23.67
2023-01-19T20:27:24.327Z,19.80
2023-01-19T20:29:58.402Z,18.63
2023-01-19T20:32:31.504Z,17.30
2023-01-19T20:35:06.275Z,16.63
2023-01-19T20:37:39.430Z,15.63
2023-01-19T20:40:13.892Z,15.20
2023-01-19T20:42:46.915Z,15.47
2023-01-19T20:45:20.683Z,16.63
2023-01-19T20:47:54.318Z,15.63
2023-01-19T20:50:27.353Z,15.10
2023-01-19T20:53:00.367Z,15.60
2023-01-19T20:55:34.725Z,15.30
2023-01-19T20:58:07.885Z,15.27
2023-01-19T21:00:41.022Z,17.20
2023-01-19T21:03:14.465Z,17.67
2023-01-19T21:05:48.621Z,20.53
2023-01-19T21:08:21.585Z,17.27
2023-01-19T21:10:58.268Z,15.20
2023-01-19T21:13:31.708Z,14.87
2023-01-19T21:16:06.377Z,15.10
2023-01-19T21:18:39.411Z,13.30
2023-01-19T21:21:28.477Z,11.97
2023-01-19T21:24:03.889Z,12.10
2023-01-19T21:26:38.876Z,12.13
2023-01-19T21:29:13.968Z,12.57
2023-01-19T21:31:47.013Z,12.83
2023-01-19T21:34:20.013Z,14.63
2023-01-19T21:36:53.362Z,14.87
2023-01-19T21:39:26.361Z,14.77
2023-01-19T21:42:00.720Z,14.20
2023-01-19T21:44:33.909Z,15.73
2023-01-19T21:47:08.989Z,14.50
2023-01-19T21:49:42.004Z,13.83
2023-01-19T21:52:14.995Z,15.43
2023-01-19T21:54:47.962Z,13.80
2023-01-19T21:57:22.343Z,13.87
2023-01-19T21:59:55.468Z,15.00
2023-01-19T22:02:38.301Z,15.03
2023-01-19T22:05:12.621Z,21.63
2023-01-19T22:07:45.796Z,24.87
2023-01-19T22:10:19.247Z,23.73
2023-01-19T22:12:53.646Z,23.13
2023-01-19T22:15:26.656Z,21.30
2023-01-19T22:17:59.712Z,16.93
2023-01-19T22:20:32.733Z,16.97
2023-01-19T22:23:05.867Z,15.80
2023-01-19T22:25:38.877Z,13.97
2023-01-19T22:28:13.229Z,13.77
2023-01-19T22:30:46.359Z,14.03
2023-01-19T22:33:19.419Z,14.40
2023-01-19T22:35:52.453Z,13.80
2023-01-19T22:38:25.438Z,14.37
2023-01-19T22:40:58.413Z,14.13
2023-01-19T22:43:32.787Z,13.60
2023-01-19T22:46:08.621Z,13.57
2023-01-19T22:48:41.741Z,15.00
2023-01-19T22:51:15.688Z,15.43
2023-01-19T22:53:48.852Z,14.43
2023-01-19T22:56:24.427Z,14.80
2023-01-19T22:58:59.717Z,14.53
2023-01-19T23:01:35.206Z,13.77
2023-01-19T23:04:11.703Z,13.93
2023-01-19T23:06:46.847Z,12.63
2023-01-19T23:09:20.308Z,12.27
2023-01-19T23:11:53.315Z,12.17
2023-01-19T23:14:29.387Z,12.33
2023-01-19T23:17:02.459Z,13.47
2023-01-19T23:19:35.664Z,14.97
2023-01-19T23:22:08.677Z,13.40
2023-01-19T23:24:44.418Z,16.03
2023-01-19T23:27:17.422Z,18.07
2023-01-19T23:29:51.731Z,14.70
2023-01-19T23:32:24.733Z,14.40
2023-01-19T23:34:57.752Z,13.60
2023-01-19T23:37:30.769Z,13.03
2023-01-19T23:40:03.874Z,12.90
2023-01-19T23:42:36.889Z,13.10
2023-01-19T23:45:12.376Z,13.30
2023-01-19T23:47:46.367Z,12.23
2023-01-19T23:50:19.798Z,13.47
2023-01-19T23:52:52.796Z,12.97
2023-01-19T23:55:25.886Z,12.97
2023-01-19T23:57:58.961Z,12.00
